sensor_id;sensor_type;location;lat;lon;timestamp;P1;durP1;ratioP1;P2;durP2;ratioP2
74616;SDS011;63123;50.906;4.198;2023-04-08T00:00:43;3.72;;;3.10;;
74616;SDS011;63123;50.906;4.198;2023-04-08T00:03:09;4.85;;;3.08;;
74616;SDS011;63123;50.906;4.198;2023-04-08T00:05:35;3.78;;;2.75;;
74616;SDS011;63123;50.906;4.198;2023-04-08T00:08:00;4.55;;;3.08;;
74616;SDS011;63123;50.906;4.198;2023-04-08T00:10:26;2.75;;;2.53;;
74616;SDS011;63123;50.906;4.198;2023-04-08T00:12:51;3.65;;;2.90;;
74616;SDS011;63123;50.906;4.198;2023-04-08T00:15:17;4.63;;;2.60;;
74616;SDS011;63123;50.906;4.198;2023-04-08T00:17:43;3.10;;;2.70;;
74616;SDS011;63123;50.906;4.198;2023-04-08T00:20:09;3.70;;;2.80;;
74616;SDS011;63123;50.906;4.198;2023-04-08T00:22:35;4.60;;;2.88;;
74616;SDS011;63123;50.906;4.198;2023-04-08T00:25:01;3.90;;;3.05;;
74616;SDS011;63123;50.906;4.198;2023-04-08T00:27:26;3.53;;;3.20;;
74616;SDS011;63123;50.906;4.198;2023-04-08T00:29:52;3.63;;;3.25;;
74616;SDS011;63123;50.906;4.198;2023-04-08T00:32:18;4.35;;;3.47;;
74616;SDS011;63123;50.906;4.198;2023-04-08T00:34:43;4.07;;;3.28;;
74616;SDS011;63123;50.906;4.198;2023-04-08T00:37:09;6.03;;;3.75;;
74616;SDS011;63123;50.906;4.198;2023-04-08T00:39:35;3.83;;;3.42;;
74616;SDS011;63123;50.906;4.198;2023-04-08T00:42:01;4.20;;;3.38;;
74616;SDS011;63123;50.906;4.198;2023-04-08T00:44:27;4.40;;;3.53;;
74616;SDS011;63123;50.906;4.198;2023-04-08T00:46:53;4.95;;;3.53;;
74616;SDS011;63123;50.906;4.198;2023-04-08T00:49:19;4.90;;;4.38;;
74616;SDS011;63123;50.906;4.198;2023-04-08T00:51:45;5.13;;;4.28;;
74616;SDS011;63123;50.906;4.198;2023-04-08T00:54:10;5.93;;;4.45;;
74616;SDS011;63123;50.906;4.198;2023-04-08T00:56:36;4.45;;;3.90;;
74616;SDS011;63123;50.906;4.198;2023-04-08T00:59:02;5.10;;;4.55;;
74616;SDS011;63123;50.906;4.198;2023-04-08T01:04:08;5.38;;;4.70;;
74616;SDS011;63123;50.906;4.198;2023-04-08T01:06:50;5.43;;;4.35;;
74616;SDS011;63123;50.906;4.198;2023-04-08T01:09:37;4.70;;;3.70;;
74616;SDS011;63123;50.906;4.198;2023-04-08T01:12:04;7.35;;;5.20;;
74616;SDS011;63123;50.906;4.198;2023-04-08T01:14:34;6.47;;;4.75;;
74616;SDS011;63123;50.906;4.198;2023-04-08T01:17:03;6.97;;;4.75;;
74616;SDS011;63123;50.906;4.198;2023-04-08T01:19:30;5.90;;;4.82;;
74616;SDS011;63123;50.906;4.198;2023-04-08T01:22:02;4.35;;;3.53;;
74616;SDS011;63123;50.906;4.198;2023-04-08T01:24:50;5.30;;;4.60;;
74616;SDS011;63123;50.906;4.198;2023-04-08T01:27:32;5.75;;;4.57;;
74616;SDS011;63123;50.906;4.198;2023-04-08T01:29:59;5.82;;;3.97;;
74616;SDS011;63123;50.906;4.198;2023-04-08T01:32:27;4.90;;;4.40;;
74616;SDS011;63123;50.906;4.198;2023-04-08T01:34:55;5.32;;;4.82;;
74616;SDS011;63123;50.906;4.198;2023-04-08T01:37:22;4.50;;;4.10;;
74616;SDS011;63123;50.906;4.198;2023-04-08T01:39:50;5.32;;;4.53;;
74616;SDS011;63123;50.906;4.198;2023-04-08T01:42:17;6.88;;;5.10;;
74616;SDS011;63123;50.906;4.198;2023-04-08T01:44:43;5.07;;;4.45;;
74616;SDS011;63123;50.906;4.198;2023-04-08T01:47:10;4.70;;;4.03;;
74616;SDS011;63123;50.906;4.198;2023-04-08T01:49:38;7.05;;;4.72;;
74616;SDS011;63123;50.906;4.198;2023-04-08T01:52:04;5.45;;;4.22;;
74616;SDS011;63123;50.906;4.198;2023-04-08T01:54:32;5.45;;;4.43;;
74616;SDS011;63123;50.906;4.198;2023-04-08T01:56:59;6.60;;;5.05;;
74616;SDS011;63123;50.906;4.198;2023-04-08T01:59:29;6.97;;;5.30;;
74616;SDS011;63123;50.906;4.198;2023-04-08T02:01:57;5.88;;;5.10;;
74616;SDS011;63123;50.906;4.198;2023-04-08T02:04:24;6.57;;;4.97;;
74616;SDS011;63123;50.906;4.198;2023-04-08T02:06:50;6.65;;;4.40;;
74616;SDS011;63123;50.906;4.198;2023-04-08T02:09:16;6.03;;;4.80;;
74616;SDS011;63123;50.906;4.198;2023-04-08T02:11:41;6.53;;;4.93;;
74616;SDS011;63123;50.906;4.198;2023-04-08T02:14:07;5.10;;;4.30;;
74616;SDS011;63123;50.906;4.198;2023-04-08T02:16:36;6.38;;;4.40;;
74616;SDS011;63123;50.906;4.198;2023-04-08T02:19:07;5.53;;;4.10;;
74616;SDS011;63123;50.906;4.198;2023-04-08T02:21:42;5.97;;;4.75;;
74616;SDS011;63123;50.906;4.198;2023-04-08T02:24:11;5.95;;;4.30;;
74616;SDS011;63123;50.906;4.198;2023-04-08T02:26:39;6.95;;;5.20;;
74616;SDS011;63123;50.906;4.198;2023-04-08T02:29:07;4.93;;;4.40;;
74616;SDS011;63123;50.906;4.198;2023-04-08T02:31:37;6.45;;;5.15;;
74616;SDS011;63123;50.906;4.198;2023-04-08T02:34:05;4.57;;;4.18;;
74616;SDS011;63123;50.906;4.198;2023-04-08T02:36:35;4.28;;;3.88;;
74616;SDS011;63123;50.906;4.198;2023-04-08T02:39:03;4.68;;;4.20;;
74616;SDS011;63123;50.906;4.198;2023-04-08T02:41:28;5.75;;;4.75;;
74616;SDS011;63123;50.906;4.198;2023-04-08T02:43:55;6.18;;;5.00;;
74616;SDS011;63123;50.906;4.198;2023-04-08T02:46:21;6.38;;;4.70;;
74616;SDS011;63123;50.906;4.198;2023-04-08T02:48:47;5.63;;;4.63;;
74616;SDS011;63123;50.906;4.198;2023-04-08T02:51:12;8.10;;;5.70;;
74616;SDS011;63123;50.906;4.198;2023-04-08T02:53:38;4.70;;;3.85;;
74616;SDS011;63123;50.906;4.198;2023-04-08T02:56:04;6.43;;;5.05;;
74616;SDS011;63123;50.906;4.198;2023-04-08T02:58:30;4.32;;;3.83;;
74616;SDS011;63123;50.906;4.198;2023-04-08T03:00:55;4.43;;;3.63;;
74616;SDS011;63123;50.906;4.198;2023-04-08T03:03:21;5.95;;;4.38;;
74616;SDS011;63123;50.906;4.198;2023-04-08T03:05:53;5.47;;;4.10;;
74616;SDS011;63123;50.906;4.198;2023-04-08T03:08:20;5.70;;;4.40;;
74616;SDS011;63123;50.906;4.198;2023-04-08T03:10:45;4.88;;;4.22;;
74616;SDS011;63123;50.906;4.198;2023-04-08T03:13:11;5.18;;;4.00;;
74616;SDS011;63123;50.906;4.198;2023-04-08T03:15:36;4.75;;;4.35;;
74616;SDS011;63123;50.906;4.198;2023-04-08T03:18:02;4.88;;;4.32;;
74616;SDS011;63123;50.906;4.198;2023-04-08T03:20:28;5.00;;;3.78;;
74616;SDS011;63123;50.906;4.198;2023-04-08T03:22:54;6.50;;;4.72;;
74616;SDS011;63123;50.906;4.198;2023-04-08T03:25:20;5.93;;;4.85;;
74616;SDS011;63123;50.906;4.198;2023-04-08T03:27:45;5.53;;;4.50;;
74616;SDS011;63123;50.906;4.198;2023-04-08T03:30:11;5.35;;;4.07;;
74616;SDS011;63123;50.906;4.198;2023-04-08T03:32:36;6.00;;;4.18;;
74616;SDS011;63123;50.906;4.198;2023-04-08T03:35:02;6.15;;;4.70;;
74616;SDS011;63123;50.906;4.198;2023-04-08T03:37:29;5.32;;;4.43;;
74616;SDS011;63123;50.906;4.198;2023-04-08T03:39:55;5.63;;;4.15;;
74616;SDS011;63123;50.906;4.198;2023-04-08T03:42:20;5.47;;;4.97;;
74616;SDS011;63123;50.906;4.198;2023-04-08T03:44:46;7.13;;;5.30;;
74616;SDS011;63123;50.906;4.198;2023-04-08T03:47:11;6.13;;;5.63;;
74616;SDS011;63123;50.906;4.198;2023-04-08T03:49:37;5.57;;;4.95;;
74616;SDS011;63123;50.906;4.198;2023-04-08T03:52:02;5.60;;;4.25;;
74616;SDS011;63123;50.906;4.198;2023-04-08T03:54:28;6.72;;;4.88;;
74616;SDS011;63123;50.906;4.198;2023-04-08T03:56:54;5.82;;;4.80;;
74616;SDS011;63123;50.906;4.198;2023-04-08T03:59:19;5.75;;;4.78;;
74616;SDS011;63123;50.906;4.198;2023-04-08T04:01:45;6.50;;;4.55;;
74616;SDS011;63123;50.906;4.198;2023-04-08T04:04:11;5.45;;;4.60;;
74616;SDS011;63123;50.906;4.198;2023-04-08T04:06:37;5.53;;;4.80;;
74616;SDS011;63123;50.906;4.198;2023-04-08T04:09:02;5.78;;;4.93;;
74616;SDS011;63123;50.906;4.198;2023-04-08T04:11:28;6.30;;;5.10;;
74616;SDS011;63123;50.906;4.198;2023-04-08T04:13:54;6.97;;;4.50;;
74616;SDS011;63123;50.906;4.198;2023-04-08T04:16:19;4.95;;;4.55;;
74616;SDS011;63123;50.906;4.198;2023-04-08T04:18:45;8.05;;;5.18;;
74616;SDS011;63123;50.906;4.198;2023-04-08T04:21:11;6.00;;;5.05;;
74616;SDS011;63123;50.906;4.198;2023-04-08T04:23:36;5.97;;;5.43;;
74616;SDS011;63123;50.906;4.198;2023-04-08T04:26:06;5.25;;;4.20;;
74616;SDS011;63123;50.906;4.198;2023-04-08T04:28:33;5.50;;;4.93;;
74616;SDS011;63123;50.906;4.198;2023-04-08T04:30:59;5.97;;;5.20;;
74616;SDS011;63123;50.906;4.198;2023-04-08T04:33:25;5.32;;;4.75;;
74616;SDS011;63123;50.906;4.198;2023-04-08T04:35:51;6.38;;;4.60;;
74616;SDS011;63123;50.906;4.198;2023-04-08T04:38:16;5.57;;;4.50;;
74616;SDS011;63123;50.906;4.198;2023-04-08T04:40:42;5.15;;;4.65;;
74616;SDS011;63123;50.906;4.198;2023-04-08T04:43:08;5.88;;;4.85;;
74616;SDS011;63123;50.906;4.198;2023-04-08T04:45:34;5.28;;;4.40;;
74616;SDS011;63123;50.906;4.198;2023-04-08T04:48:00;6.30;;;5.35;;
74616;SDS011;63123;50.906;4.198;2023-04-08T04:50:25;5.45;;;4.47;;
74616;SDS011;63123;50.906;4.198;2023-04-08T04:52:51;4.65;;;4.25;;
74616;SDS011;63123;50.906;4.198;2023-04-08T04:55:17;5.50;;;4.95;;
74616;SDS011;63123;50.906;4.198;2023-04-08T04:57:42;5.07;;;4.22;;
74616;SDS011;63123;50.906;4.198;2023-04-08T05:00:11;5.63;;;4.28;;
74616;SDS011;63123;50.906;4.198;2023-04-08T05:02:36;5.03;;;4.40;;
74616;SDS011;63123;50.906;4.198;2023-04-08T05:05:02;5.18;;;4.68;;
74616;SDS011;63123;50.906;4.198;2023-04-08T05:07:28;6.05;;;5.45;;
74616;SDS011;63123;50.906;4.198;2023-04-08T05:09:53;5.22;;;4.72;;
74616;SDS011;63123;50.906;4.198;2023-04-08T05:12:19;6.32;;;4.53;;
74616;SDS011;63123;50.906;4.198;2023-04-08T05:14:45;6.47;;;4.93;;
74616;SDS011;63123;50.906;4.198;2023-04-08T05:17:10;5.10;;;4.60;;
74616;SDS011;63123;50.906;4.198;2023-04-08T05:19:36;5.40;;;4.82;;
74616;SDS011;63123;50.906;4.198;2023-04-08T05:22:02;6.07;;;4.80;;
74616;SDS011;63123;50.906;4.198;2023-04-08T05:24:27;5.00;;;4.50;;
74616;SDS011;63123;50.906;4.198;2023-04-08T05:26:53;5.28;;;4.78;;
74616;SDS011;63123;50.906;4.198;2023-04-08T05:29:19;7.63;;;5.57;;
74616;SDS011;63123;50.906;4.198;2023-04-08T05:31:45;4.90;;;4.22;;
74616;SDS011;63123;50.906;4.198;2023-04-08T05:34:11;6.47;;;5.35;;
74616;SDS011;63123;50.906;4.198;2023-04-08T05:36:37;5.93;;;4.97;;
74616;SDS011;63123;50.906;4.198;2023-04-08T05:39:03;4.40;;;4.00;;
74616;SDS011;63123;50.906;4.198;2023-04-08T05:41:28;6.57;;;5.05;;
74616;SDS011;63123;50.906;4.198;2023-04-08T05:43:54;6.13;;;4.78;;
74616;SDS011;63123;50.906;4.198;2023-04-08T05:46:19;6.38;;;5.35;;
74616;SDS011;63123;50.906;4.198;2023-04-08T05:48:45;7.22;;;5.90;;
74616;SDS011;63123;50.906;4.198;2023-04-08T05:51:13;6.15;;;4.95;;
74616;SDS011;63123;50.906;4.198;2023-04-08T05:53:40;7.28;;;6.05;;
74616;SDS011;63123;50.906;4.198;2023-04-08T05:56:05;5.18;;;4.68;;
74616;SDS011;63123;50.906;4.198;2023-04-08T05:58:31;7.65;;;5.60;;
74616;SDS011;63123;50.906;4.198;2023-04-08T06:00:57;6.78;;;5.43;;
74616;SDS011;63123;50.906;4.198;2023-04-08T06:03:22;5.82;;;5.22;;
74616;SDS011;63123;50.906;4.198;2023-04-08T06:05:48;6.88;;;5.20;;
74616;SDS011;63123;50.906;4.198;2023-04-08T06:08:13;6.15;;;4.50;;
74616;SDS011;63123;50.906;4.198;2023-04-08T06:10:39;5.07;;;4.68;;
74616;SDS011;63123;50.906;4.198;2023-04-08T06:13:05;5.05;;;4.50;;
74616;SDS011;63123;50.906;4.198;2023-04-08T06:15:30;6.30;;;5.57;;
74616;SDS011;63123;50.906;4.198;2023-04-08T06:17:56;5.57;;;4.88;;
74616;SDS011;63123;50.906;4.198;2023-04-08T06:20:22;6.10;;;5.25;;
74616;SDS011;63123;50.906;4.198;2023-04-08T06:22:47;5.55;;;4.93;;
74616;SDS011;63123;50.906;4.198;2023-04-08T06:25:13;5.18;;;4.65;;
74616;SDS011;63123;50.906;4.198;2023-04-08T06:27:38;6.97;;;5.05;;
74616;SDS011;63123;50.906;4.198;2023-04-08T06:30:04;5.70;;;5.10;;
74616;SDS011;63123;50.906;4.198;2023-04-08T06:32:30;5.95;;;5.18;;
74616;SDS011;63123;50.906;4.198;2023-04-08T06:34:56;7.07;;;5.18;;
74616;SDS011;63123;50.906;4.198;2023-04-08T06:37:22;6.22;;;5.15;;
74616;SDS011;63123;50.906;4.198;2023-04-08T06:39:48;5.45;;;4.95;;
74616;SDS011;63123;50.906;4.198;2023-04-08T06:42:13;5.82;;;5.20;;
74616;SDS011;63123;50.906;4.198;2023-04-08T06:44:39;5.63;;;5.10;;
74616;SDS011;63123;50.906;4.198;2023-04-08T06:47:05;5.82;;;5.30;;
74616;SDS011;63123;50.906;4.198;2023-04-08T06:49:30;4.75;;;4.30;;
74616;SDS011;63123;50.906;4.198;2023-04-08T06:51:56;5.57;;;5.00;;
74616;SDS011;63123;50.906;4.198;2023-04-08T06:54:22;6.32;;;5.72;;
74616;SDS011;63123;50.906;4.198;2023-04-08T06:56:47;5.68;;;4.97;;
74616;SDS011;63123;50.906;4.198;2023-04-08T06:59:13;6.72;;;4.72;;
74616;SDS011;63123;50.906;4.198;2023-04-08T07:01:38;7.47;;;5.45;;
74616;SDS011;63123;50.906;4.198;2023-04-08T07:04:04;5.43;;;4.63;;
74616;SDS011;63123;50.906;4.198;2023-04-08T07:06:29;5.38;;;4.88;;
74616;SDS011;63123;50.906;4.198;2023-04-08T07:08:55;4.50;;;4.10;;
74616;SDS011;63123;50.906;4.198;2023-04-08T07:11:21;5.32;;;4.82;;
74616;SDS011;63123;50.906;4.198;2023-04-08T07:13:46;6.90;;;4.72;;
74616;SDS011;63123;50.906;4.198;2023-04-08T07:16:12;5.07;;;4.57;;
74616;SDS011;63123;50.906;4.198;2023-04-08T07:18:37;5.18;;;4.68;;
74616;SDS011;63123;50.906;4.198;2023-04-08T07:21:05;5.93;;;4.82;;
74616;SDS011;63123;50.906;4.198;2023-04-08T07:23:31;5.78;;;5.28;;
74616;SDS011;63123;50.906;4.198;2023-04-08T07:26:00;4.85;;;4.05;;
74616;SDS011;63123;50.906;4.198;2023-04-08T07:28:28;6.97;;;5.43;;
74616;SDS011;63123;50.906;4.198;2023-04-08T07:30:53;5.50;;;4.80;;
74616;SDS011;63123;50.906;4.198;2023-04-08T07:33:19;5.05;;;4.55;;
74616;SDS011;63123;50.906;4.198;2023-04-08T07:35:45;4.78;;;3.97;;
74616;SDS011;63123;50.906;4.198;2023-04-08T07:38:10;4.80;;;4.10;;
74616;SDS011;63123;50.906;4.198;2023-04-08T07:40:37;5.07;;;4.60;;
74616;SDS011;63123;50.906;4.198;2023-04-08T07:43:03;4.38;;;3.97;;
74616;SDS011;63123;50.906;4.198;2023-04-08T07:45:28;4.43;;;4.03;;
74616;SDS011;63123;50.906;4.198;2023-04-08T07:47:54;4.70;;;4.13;;
74616;SDS011;63123;50.906;4.198;2023-04-08T07:50:19;4.10;;;3.70;;
74616;SDS011;63123;50.906;4.198;2023-04-08T07:52:45;4.00;;;3.55;;
74616;SDS011;63123;50.906;4.198;2023-04-08T07:55:11;4.63;;;3.35;;
74616;SDS011;63123;50.906;4.198;2023-04-08T07:57:36;3.88;;;3.58;;
74616;SDS011;63123;50.906;4.198;2023-04-08T08:00:02;3.92;;;3.40;;
74616;SDS011;63123;50.906;4.198;2023-04-08T08:02:28;4.18;;;3.45;;
74616;SDS011;63123;50.906;4.198;2023-04-08T08:04:54;3.78;;;3.40;;
74616;SDS011;63123;50.906;4.198;2023-04-08T08:07:20;4.85;;;4.35;;
74616;SDS011;63123;50.906;4.198;2023-04-08T08:09:45;4.03;;;3.45;;
74616;SDS011;63123;50.906;4.198;2023-04-08T08:12:11;3.65;;;3.35;;
74616;SDS011;63123;50.906;4.198;2023-04-08T08:14:37;4.28;;;3.80;;
74616;SDS011;63123;50.906;4.198;2023-04-08T08:17:03;4.05;;;3.70;;
74616;SDS011;63123;50.906;4.198;2023-04-08T08:19:28;4.43;;;4.03;;
74616;SDS011;63123;50.906;4.198;2023-04-08T08:21:54;4.72;;;4.18;;
74616;SDS011;63123;50.906;4.198;2023-04-08T08:24:20;4.07;;;3.65;;
74616;SDS011;63123;50.906;4.198;2023-04-08T08:26:46;5.13;;;4.60;;
74616;SDS011;63123;50.906;4.198;2023-04-08T08:29:13;4.70;;;4.25;;
74616;SDS011;63123;50.906;4.198;2023-04-08T08:31:38;4.45;;;3.83;;
74616;SDS011;63123;50.906;4.198;2023-04-08T08:34:04;5.00;;;4.30;;
74616;SDS011;63123;50.906;4.198;2023-04-08T08:36:30;5.32;;;4.80;;
74616;SDS011;63123;50.906;4.198;2023-04-08T08:38:55;5.32;;;4.80;;
74616;SDS011;63123;50.906;4.198;2023-04-08T08:41:21;5.15;;;4.65;;
74616;SDS011;63123;50.906;4.198;2023-04-08T08:43:47;5.30;;;4.78;;
74616;SDS011;63123;50.906;4.198;2023-04-08T08:46:14;4.65;;;4.28;;
74616;SDS011;63123;50.906;4.198;2023-04-08T08:48:42;4.93;;;4.50;;
74616;SDS011;63123;50.906;4.198;2023-04-08T08:51:08;5.43;;;4.93;;
74616;SDS011;63123;50.906;4.198;2023-04-08T08:53:35;5.50;;;4.55;;
74616;SDS011;63123;50.906;4.198;2023-04-08T08:56:01;4.65;;;4.25;;
74616;SDS011;63123;50.906;4.198;2023-04-08T08:58:27;5.30;;;4.80;;
74616;SDS011;63123;50.906;4.198;2023-04-08T09:00:53;5.40;;;4.90;;
74616;SDS011;63123;50.906;4.198;2023-04-08T09:03:20;4.95;;;4.55;;
74616;SDS011;63123;50.906;4.198;2023-04-08T09:05:48;5.03;;;4.63;;
74616;SDS011;63123;50.906;4.198;2023-04-08T09:08:25;5.88;;;5.35;;
74616;SDS011;63123;50.906;4.198;2023-04-08T09:11:19;4.97;;;4.45;;
74616;SDS011;63123;50.906;4.198;2023-04-08T09:13:48;6.45;;;5.85;;
74616;SDS011;63123;50.906;4.198;2023-04-08T09:16:14;4.70;;;4.30;;
74616;SDS011;63123;50.906;4.198;2023-04-08T09:18:42;5.00;;;4.55;;
74616;SDS011;63123;50.906;4.198;2023-04-08T09:21:10;5.55;;;4.75;;
74616;SDS011;63123;50.906;4.198;2023-04-08T09:23:44;4.60;;;4.20;;
74616;SDS011;63123;50.906;4.198;2023-04-08T09:26:14;5.22;;;4.75;;
74616;SDS011;63123;50.906;4.198;2023-04-08T09:29:05;5.60;;;5.10;;
74616;SDS011;63123;50.906;4.198;2023-04-08T09:31:32;5.35;;;4.88;;
74616;SDS011;63123;50.906;4.198;2023-04-08T09:34:09;5.35;;;4.85;;
74616;SDS011;63123;50.906;4.198;2023-04-08T09:36:37;5.30;;;4.55;;
74616;SDS011;63123;50.906;4.198;2023-04-08T09:39:02;5.22;;;4.57;;
74616;SDS011;63123;50.906;4.198;2023-04-08T09:41:29;4.35;;;3.95;;
74616;SDS011;63123;50.906;4.198;2023-04-08T09:43:58;4.55;;;4.15;;
74616;SDS011;63123;50.906;4.198;2023-04-08T09:49:12;5.10;;;4.60;;
74616;SDS011;63123;50.906;4.198;2023-04-08T09:51:58;4.78;;;4.20;;
74616;SDS011;63123;50.906;4.198;2023-04-08T09:54:52;5.53;;;5.05;;
74616;SDS011;63123;50.906;4.198;2023-04-08T10:00:20;5.60;;;5.20;;
74616;SDS011;63123;50.906;4.198;2023-04-08T10:02:58;5.00;;;4.60;;
74616;SDS011;63123;50.906;4.198;2023-04-08T10:05:30;5.43;;;4.93;;
74616;SDS011;63123;50.906;4.198;2023-04-08T10:08:00;5.75;;;5.25;;
74616;SDS011;63123;50.906;4.198;2023-04-08T10:10:25;4.47;;;4.00;;
74616;SDS011;63123;50.906;4.198;2023-04-08T10:12:51;5.45;;;5.03;;
74616;SDS011;63123;50.906;4.198;2023-04-08T10:15:27;4.95;;;4.50;;
74616;SDS011;63123;50.906;4.198;2023-04-08T10:23:03;5.50;;;5.00;;
74616;SDS011;63123;50.906;4.198;2023-04-08T10:25:37;5.03;;;4.47;;
74616;SDS011;63123;50.906;4.198;2023-04-08T10:33:17;4.38;;;3.97;;
74616;SDS011;63123;50.906;4.198;2023-04-08T10:35:47;5.50;;;5.00;;
74616;SDS011;63123;50.906;4.198;2023-04-08T10:38:17;5.05;;;4.65;;
74616;SDS011;63123;50.906;4.198;2023-04-08T10:40:43;4.28;;;3.88;;
74616;SDS011;63123;50.906;4.198;2023-04-08T10:43:10;5.85;;;5.25;;
74616;SDS011;63123;50.906;4.198;2023-04-08T10:45:37;4.60;;;4.20;;
74616;SDS011;63123;50.906;4.198;2023-04-08T10:48:10;5.05;;;4.65;;
74616;SDS011;63123;50.906;4.198;2023-04-08T10:50:37;4.45;;;4.07;;
74616;SDS011;63123;50.906;4.198;2023-04-08T10:53:02;5.30;;;4.80;;
74616;SDS011;63123;50.906;4.198;2023-04-08T10:55:29;5.40;;;5.00;;
74616;SDS011;63123;50.906;4.198;2023-04-08T10:58:03;5.22;;;4.60;;
74616;SDS011;63123;50.906;4.198;2023-04-08T11:00:34;5.78;;;5.28;;
74616;SDS011;63123;50.906;4.198;2023-04-08T11:03:05;5.95;;;5.35;;
74616;SDS011;63123;50.906;4.198;2023-04-08T11:05:32;5.25;;;4.85;;
74616;SDS011;63123;50.906;4.198;2023-04-08T11:07:59;5.38;;;4.88;;
74616;SDS011;63123;50.906;4.198;2023-04-08T11:10:25;4.88;;;4.47;;
74616;SDS011;63123;50.906;4.198;2023-04-08T11:12:54;7.05;;;6.43;;
74616;SDS011;63123;50.906;4.198;2023-04-08T11:15:21;6.18;;;5.68;;
74616;SDS011;63123;50.906;4.198;2023-04-08T11:17:49;5.15;;;4.75;;
74616;SDS011;63123;50.906;4.198;2023-04-08T11:20:15;4.93;;;4.50;;
74616;SDS011;63123;50.906;4.198;2023-04-08T11:22:42;6.20;;;5.60;;
74616;SDS011;63123;50.906;4.198;2023-04-08T11:25:09;5.63;;;5.10;;
74616;SDS011;63123;50.906;4.198;2023-04-08T11:27:35;6.25;;;5.75;;
74616;SDS011;63123;50.906;4.198;2023-04-08T11:30:02;5.00;;;4.60;;
74616;SDS011;63123;50.906;4.198;2023-04-08T11:32:29;5.63;;;5.13;;
74616;SDS011;63123;50.906;4.198;2023-04-08T11:34:57;6.28;;;5.72;;
74616;SDS011;63123;50.906;4.198;2023-04-08T11:37:25;6.55;;;5.95;;
74616;SDS011;63123;50.906;4.198;2023-04-08T11:39:53;6.75;;;6.20;;
74616;SDS011;63123;50.906;4.198;2023-04-08T11:42:27;6.03;;;5.43;;
74616;SDS011;63123;50.906;4.198;2023-04-08T11:44:53;6.05;;;5.55;;
74616;SDS011;63123;50.906;4.198;2023-04-08T11:47:19;6.22;;;5.68;;
74616;SDS011;63123;50.906;4.198;2023-04-08T11:49:46;5.50;;;5.00;;
74616;SDS011;63123;50.906;4.198;2023-04-08T11:52:12;5.90;;;5.38;;
74616;SDS011;63123;50.906;4.198;2023-04-08T11:54:41;5.90;;;5.40;;
74616;SDS011;63123;50.906;4.198;2023-04-08T11:57:07;5.85;;;5.32;;
74616;SDS011;63123;50.906;4.198;2023-04-08T11:59:36;5.35;;;4.85;;
74616;SDS011;63123;50.906;4.198;2023-04-08T12:02:02;5.40;;;4.68;;
74616;SDS011;63123;50.906;4.198;2023-04-08T12:04:28;5.95;;;5.45;;
74616;SDS011;63123;50.906;4.198;2023-04-08T12:06:54;5.60;;;5.10;;
74616;SDS011;63123;50.906;4.198;2023-04-08T12:09:20;5.88;;;5.38;;
74616;SDS011;63123;50.906;4.198;2023-04-08T12:11:46;4.82;;;4.43;;
74616;SDS011;63123;50.906;4.198;2023-04-08T12:14:12;5.75;;;5.00;;
74616;SDS011;63123;50.906;4.198;2023-04-08T12:16:38;5.82;;;5.32;;
74616;SDS011;63123;50.906;4.198;2023-04-08T12:19:04;6.28;;;5.68;;
74616;SDS011;63123;50.906;4.198;2023-04-08T12:21:30;5.60;;;5.10;;
74616;SDS011;63123;50.906;4.198;2023-04-08T12:23:56;5.30;;;4.75;;
74616;SDS011;63123;50.906;4.198;2023-04-08T12:26:22;6.20;;;5.70;;
74616;SDS011;63123;50.906;4.198;2023-04-08T12:28:48;5.55;;;5.15;;
74616;SDS011;63123;50.906;4.198;2023-04-08T12:31:13;5.88;;;5.35;;
74616;SDS011;63123;50.906;4.198;2023-04-08T12:33:39;5.75;;;5.28;;
74616;SDS011;63123;50.906;4.198;2023-04-08T12:36:05;5.05;;;4.65;;
74616;SDS011;63123;50.906;4.198;2023-04-08T12:38:30;5.38;;;4.93;;
74616;SDS011;63123;50.906;4.198;2023-04-08T12:40:57;6.57;;;6.07;;
74616;SDS011;63123;50.906;4.198;2023-04-08T12:43:23;5.57;;;5.07;;
74616;SDS011;63123;50.906;4.198;2023-04-08T12:45:49;6.00;;;5.50;;
74616;SDS011;63123;50.906;4.198;2023-04-08T12:48:15;5.38;;;4.97;;
74616;SDS011;63123;50.906;4.198;2023-04-08T12:50:41;6.70;;;6.10;;
74616;SDS011;63123;50.906;4.198;2023-04-08T12:53:07;5.70;;;5.30;;
74616;SDS011;63123;50.906;4.198;2023-04-08T12:55:32;5.80;;;5.30;;
74616;SDS011;63123;50.906;4.198;2023-04-08T12:57:58;6.28;;;5.78;;
74616;SDS011;63123;50.906;4.198;2023-04-08T13:00:24;5.75;;;5.32;;
74616;SDS011;63123;50.906;4.198;2023-04-08T13:02:50;5.88;;;5.20;;
74616;SDS011;63123;50.906;4.198;2023-04-08T13:05:15;5.20;;;4.72;;
74616;SDS011;63123;50.906;4.198;2023-04-08T13:07:41;5.05;;;4.63;;
74616;SDS011;63123;50.906;4.198;2023-04-08T13:10:07;5.15;;;4.75;;
74616;SDS011;63123;50.906;4.198;2023-04-08T13:12:33;5.88;;;5.35;;
74616;SDS011;63123;50.906;4.198;2023-04-08T13:14:58;4.97;;;4.57;;
74616;SDS011;63123;50.906;4.198;2023-04-08T13:17:25;5.28;;;4.88;;
74616;SDS011;63123;50.906;4.198;2023-04-08T13:19:51;5.65;;;5.25;;
74616;SDS011;63123;50.906;4.198;2023-04-08T13:22:17;5.82;;;5.30;;
74616;SDS011;63123;50.906;4.198;2023-04-08T13:24:43;5.75;;;5.22;;
74616;SDS011;63123;50.906;4.198;2023-04-08T13:27:08;6.00;;;5.40;;
74616;SDS011;63123;50.906;4.198;2023-04-08T13:29:34;6.13;;;5.63;;
74616;SDS011;63123;50.906;4.198;2023-04-08T13:31:59;6.18;;;5.57;;
74616;SDS011;63123;50.906;4.198;2023-04-08T13:34:25;6.50;;;6.00;;
74616;SDS011;63123;50.906;4.198;2023-04-08T13:36:51;6.80;;;6.20;;
74616;SDS011;63123;50.906;4.198;2023-04-08T13:39:17;6.88;;;6.28;;
74616;SDS011;63123;50.906;4.198;2023-04-08T13:41:42;5.65;;;5.22;;
74616;SDS011;63123;50.906;4.198;2023-04-08T13:44:08;6.80;;;6.20;;
74616;SDS011;63123;50.906;4.198;2023-04-08T13:46:34;5.95;;;5.40;;
74616;SDS011;63123;50.906;4.198;2023-04-08T13:49:00;5.45;;;4.97;;
74616;SDS011;63123;50.906;4.198;2023-04-08T13:51:27;6.50;;;5.90;;
74616;SDS011;63123;50.906;4.198;2023-04-08T13:53:52;6.30;;;5.70;;
74616;SDS011;63123;50.906;4.198;2023-04-08T13:56:18;6.45;;;5.95;;
74616;SDS011;63123;50.906;4.198;2023-04-08T13:58:45;6.82;;;6.28;;
74616;SDS011;63123;50.906;4.198;2023-04-08T14:01:11;6.15;;;5.55;;
74616;SDS011;63123;50.906;4.198;2023-04-08T14:03:36;6.35;;;5.72;;
74616;SDS011;63123;50.906;4.198;2023-04-08T14:06:02;5.85;;;5.35;;
74616;SDS011;63123;50.906;4.198;2023-04-08T14:08:28;6.90;;;6.30;;
74616;SDS011;63123;50.906;4.198;2023-04-08T14:10:56;6.75;;;6.20;;
74616;SDS011;63123;50.906;4.198;2023-04-08T14:13:22;6.90;;;6.22;;
74616;SDS011;63123;50.906;4.198;2023-04-08T14:15:48;6.75;;;6.15;;
74616;SDS011;63123;50.906;4.198;2023-04-08T14:18:14;6.03;;;5.53;;
74616;SDS011;63123;50.906;4.198;2023-04-08T14:20:41;6.80;;;6.20;;
74616;SDS011;63123;50.906;4.198;2023-04-08T14:23:07;6.22;;;5.63;;
74616;SDS011;63123;50.906;4.198;2023-04-08T14:25:33;5.85;;;5.35;;
74616;SDS011;63123;50.906;4.198;2023-04-08T14:27:59;6.88;;;6.28;;
74616;SDS011;63123;50.906;4.198;2023-04-08T14:30:25;6.88;;;6.22;;
74616;SDS011;63123;50.906;4.198;2023-04-08T14:32:51;7.63;;;6.93;;
74616;SDS011;63123;50.906;4.198;2023-04-08T14:35:16;7.60;;;6.90;;
74616;SDS011;63123;50.906;4.198;2023-04-08T14:37:42;6.40;;;5.90;;
74616;SDS011;63123;50.906;4.198;2023-04-08T14:40:08;6.70;;;6.15;;
74616;SDS011;63123;50.906;4.198;2023-04-08T14:42:34;6.50;;;6.00;;
74616;SDS011;63123;50.906;4.198;2023-04-08T14:45:00;7.45;;;6.75;;
74616;SDS011;63123;50.906;4.198;2023-04-08T14:47:26;7.47;;;6.78;;
74616;SDS011;63123;50.906;4.198;2023-04-08T14:49:51;6.95;;;6.35;;
74616;SDS011;63123;50.906;4.198;2023-04-08T14:52:17;7.63;;;6.93;;
74616;SDS011;63123;50.906;4.198;2023-04-08T14:54:43;7.28;;;6.57;;
74616;SDS011;63123;50.906;4.198;2023-04-08T14:57:09;7.53;;;6.93;;
74616;SDS011;63123;50.906;4.198;2023-04-08T14:59:35;7.90;;;7.30;;
74616;SDS011;63123;50.906;4.198;2023-04-08T15:02:00;6.88;;;6.28;;
74616;SDS011;63123;50.906;4.198;2023-04-08T15:04:26;6.82;;;6.22;;